Terminal Aerodrome Forecast
Issued by NWS

Current Version | Previous Version | Text Only | Print | Product List | Glossary Off
Versions: 1 2 3 4 5 6 7 8 9 10 11 12 13 14 15 16 17 18 19 20 21 22 23 24

000
FTUS41 KPBZ 290539
TAFHLG
TAF
KHLG 290539Z 2906/3006 00000KT 1SM BR SCT100
     FM290800 00000KT 1/2SM FG VV003
     FM291400 28004KT P6SM BKN015
     FM291600 31004KT P6SM BKN025
     FM291800 32005KT P6SM VCSH BKN050=

USA.gov is the U.S. government's official web portal to all federal, state and local government web resources and services.